createdAt,value
2022-12-01T00:00:00.313Z,86.5
2022-12-01T00:01:00.457Z,86.6
2022-12-01T00:02:00.683Z,86.6
2022-12-01T00:03:00.878Z,86.4
2022-12-01T00:04:00.912Z,86.4
2022-12-01T00:05:01.071Z,86.3
2022-12-01T00:06:01.184Z,86.3
2022-12-01T00:07:00.321Z,86.3
2022-12-01T00:08:00.509Z,86.3
2022-12-01T00:09:00.651Z,86.2
2022-12-01T00:10:00.779Z,86.1
2022-12-01T00:11:00.926Z,86.1
2022-12-01T00:12:01.072Z,86
2022-12-01T00:13:01.220Z,86
2022-12-01T00:14:00.410Z,85.9
2022-12-01T00:15:00.513Z,85.7
2022-12-01T00:16:00.787Z,85.7
2022-12-01T00:17:00.811Z,85.8
2022-12-01T00:18:00.965Z,85.8
2022-12-01T00:19:01.147Z,85.6
2022-12-01T00:20:00.264Z,85.5
2022-12-01T00:21:00.402Z,85.5
2022-12-01T00:22:00.551Z,85.6
2022-12-01T00:23:00.719Z,85.6
2022-12-01T00:24:00.897Z,85.7
2022-12-01T00:25:01.005Z,85.5
2022-12-01T00:26:01.142Z,85.6
2022-12-01T00:27:00.283Z,85.6
2022-12-01T00:28:00.431Z,85.7
2022-12-01T00:29:00.620Z,85.7
2022-12-01T00:30:00.725Z,85.9
2022-12-01T00:31:00.876Z,85.8
2022-12-01T00:32:01.187Z,85.8
2022-12-01T00:33:01.168Z,85.8
2022-12-01T00:34:00.336Z,85.8
2022-12-01T00:35:00.475Z,85.9
2022-12-01T00:36:00.612Z,86.2
2022-12-01T00:37:00.761Z,86.2
2022-12-01T00:38:00.908Z,86.1
2022-12-01T00:39:01.099Z,86.1
2022-12-01T00:40:01.218Z,86.1
2022-12-01T00:41:00.364Z,86.1
2022-12-01T00:42:00.515Z,86
2022-12-01T00:43:00.656Z,86
2022-12-01T00:44:00.830Z,86
2022-12-01T00:45:00.982Z,86
2022-12-01T00:46:01.189Z,86.1
2022-12-01T00:47:01.238Z,86.1
2022-12-01T00:48:00.385Z,86.2
2022-12-01T00:49:00.531Z,86.2
2022-12-01T00:50:00.712Z,86.2
2022-12-01T00:51:00.846Z,86.2
2022-12-01T00:52:00.953Z,86.3
2022-12-01T00:53:01.112Z,86.3
2022-12-01T00:54:01.253Z,86.4
2022-12-01T00:55:00.396Z,86.5
2022-12-01T00:56:00.582Z,86.5
2022-12-01T00:57:00.724Z,86.5
2022-12-01T00:58:00.838Z,86.4
2022-12-01T00:59:00.991Z,86.5
2022-12-01T01:00:01.131Z,86.5
2022-12-01T01:01:00.363Z,86.5
2022-12-01T01:02:00.480Z,86.6
2022-12-01T01:03:00.569Z,86.6
2022-12-01T01:04:00.713Z,86.7
2022-12-01T01:05:00.858Z,86.8
2022-12-01T01:06:01.004Z,86.9
2022-12-01T01:07:01.177Z,86.9
2022-12-01T01:08:00.360Z,87
2022-12-01T01:09:00.444Z,87
2022-12-01T01:10:00.599Z,87.1
2022-12-01T01:11:00.749Z,87.2
2022-12-01T01:12:00.936Z,87.3
2022-12-01T01:13:01.044Z,87.3
2022-12-01T01:14:01.182Z,87.3
2022-12-01T01:15:00.342Z,87.4
2022-12-01T01:16:00.486Z,87.4
2022-12-01T01:17:00.762Z,87.4
2022-12-01T01:18:00.774Z,87.4
2022-12-01T01:19:00.933Z,87.5
2022-12-01T01:20:01.086Z,87.5
2022-12-01T01:21:01.223Z,87.5
2022-12-01T01:22:00.411Z,87.6
2022-12-01T01:23:00.529Z,87.6
2022-12-01T01:24:00.681Z,87.7
2022-12-01T01:25:00.823Z,87.7
2022-12-01T01:26:00.978Z,87.7
2022-12-01T01:27:01.142Z,87.7
2022-12-01T01:28:00.253Z,87.8
2022-12-01T01:29:00.396Z,87.8
2022-12-01T01:30:00.591Z,87.9
2022-12-01T01:31:00.777Z,87.9
2022-12-01T01:32:00.875Z,88
2022-12-01T01:33:00.994Z,88
2022-12-01T01:34:01.144Z,88.1
2022-12-01T01:35:00.295Z,88.1
2022-12-01T01:36:00.442Z,88.2
2022-12-01T01:37:00.609Z,88.2
2022-12-01T01:38:00.734Z,88.2
2022-12-01T01:39:00.873Z,88.3
2022-12-01T01:40:01.017Z,88.3
2022-12-01T01:41:01.176Z,88.3
2022-12-01T01:42:00.360Z,88.3
2022-12-01T01:43:00.484Z,88.4
2022-12-01T01:44:00.626Z,88.5
2022-12-01T01:45:00.769Z,88.5
2022-12-01T01:46:01.019Z,88.5
2022-12-01T01:47:01.101Z,88.6
2022-12-01T01:48:01.215Z,88.7
2022-12-01T01:49:00.357Z,88.8
2022-12-01T01:50:00.496Z,89
2022-12-01T01:51:00.663Z,89.1
2022-12-01T01:52:00.830Z,89.2
2022-12-01T01:53:00.951Z,89.4
2022-12-01T01:54:01.097Z,89.5
2022-12-01T01:55:01.258Z,89.7
2022-12-01T01:56:00.388Z,89.8
2022-12-01T01:57:00.565Z,89.9
2022-12-01T01:58:00.720Z,90
2022-12-01T01:59:00.836Z,90.1
2022-12-01T02:00:00.989Z,90.1
2022-12-01T02:01:01.228Z,90.2
2022-12-01T02:02:00.432Z,90.3
2022-12-01T02:03:00.571Z,90.3
2022-12-01T02:04:00.581Z,90.4
2022-12-01T02:05:00.721Z,90.4
2022-12-01T02:06:04.818Z,90.5
2022-12-01T02:07:01.046Z,90.5
2022-12-01T02:08:01.282Z,90.5
2022-12-01T02:09:00.317Z,90.6
2022-12-01T02:10:00.467Z,90.6
2022-12-01T02:11:00.622Z,90.7
2022-12-01T02:12:00.786Z,90.7
2022-12-01T02:13:00.907Z,90.7
2022-12-01T02:14:01.054Z,90.7
2022-12-01T02:15:01.204Z,90.8
2022-12-01T02:16:00.336Z,90.8
2022-12-01T02:17:00.596Z,90.8
2022-12-01T02:18:00.644Z,90.8
2022-12-01T02:19:00.791Z,90.9
2022-12-01T02:20:00.955Z,90.9
2022-12-01T02:21:01.101Z,90.9
2022-12-01T02:22:01.266Z,91
2022-12-01T02:23:00.385Z,91
2022-12-01T02:24:00.523Z,91.1
2022-12-01T02:25:00.712Z,91.1
2022-12-01T02:26:00.830Z,91.1
2022-12-01T02:27:00.977Z,91.1
2022-12-01T02:28:01.161Z,91.1
2022-12-01T02:29:00.272Z,91.1
2022-12-01T02:30:00.420Z,91.1
2022-12-01T02:31:00.648Z,91.1
2022-12-01T02:32:00.718Z,91.1
2022-12-01T02:33:00.896Z,91.2
2022-12-01T02:34:01.023Z,91.2
2022-12-01T02:35:01.171Z,91.2
2022-12-01T02:36:00.318Z,91.2
2022-12-01T02:37:00.468Z,91.2
2022-12-01T02:38:00.648Z,91.2
2022-12-01T02:39:00.762Z,91.2
2022-12-01T02:40:00.908Z,91.3
2022-12-01T02:41:01.050Z,91.3
2022-12-01T02:42:01.203Z,91.3
2022-12-01T02:43:00.380Z,91.3
2022-12-01T02:44:00.531Z,91.3
2022-12-01T02:45:00.640Z,91.4
2022-12-01T02:46:00.894Z,91.4
2022-12-01T02:47:00.938Z,91.4
2022-12-01T02:48:01.088Z,91.4
2022-12-01T02:49:01.257Z,91.4
2022-12-01T02:50:00.374Z,91.4
2022-12-01T02:51:00.538Z,91.4
2022-12-01T02:52:00.679Z,91.4
2022-12-01T02:53:00.864Z,91.4
2022-12-01T02:54:01.032Z,91.4
2022-12-01T02:55:01.142Z,91.4
2022-12-01T02:56:00.285Z,91.4
2022-12-01T02:57:00.433Z,91.4
2022-12-01T02:58:00.582Z,91.4
2022-12-01T02:59:00.761Z,91.4
2022-12-01T03:00:00.874Z,91.4
2022-12-01T03:01:01.045Z,91.4
2022-12-01T03:02:01.176Z,91.3
2022-12-01T03:03:00.413Z,91.3
2022-12-01T03:04:00.504Z,91.3
2022-12-01T03:05:00.618Z,91.3
2022-12-01T03:06:00.766Z,91.3
2022-12-01T03:07:00.905Z,91.3
2022-12-01T03:08:01.144Z,91.2
2022-12-01T03:09:01.231Z,91.2
2022-12-01T03:10:00.347Z,91.1
2022-12-01T03:11:00.494Z,91.1
2022-12-01T03:12:00.646Z,91.1
2022-12-01T03:13:00.791Z,91
2022-12-01T03:14:00.955Z,91.1
2022-12-01T03:15:01.079Z,91.1
2022-12-01T03:16:01.345Z,91
2022-12-01T03:17:00.375Z,91.1
2022-12-01T03:18:00.516Z,91.1
2022-12-01T03:19:00.655Z,91.1
2022-12-01T03:20:00.818Z,91.1
2022-12-01T03:21:00.948Z,91.1
2022-12-01T03:22:01.114Z,91
2022-12-01T03:23:01.236Z,91.1
2022-12-01T03:24:00.387Z,91.1
2022-12-01T03:25:00.562Z,91.1
2022-12-01T03:26:00.676Z,91.1
2022-12-01T03:27:00.824Z,91.1
2022-12-01T03:28:20.731Z,91.1
2022-12-01T03:29:01.123Z,91.1
2022-12-01T03:30:00.295Z,91.1
2022-12-01T03:31:00.502Z,91
2022-12-01T03:32:00.562Z,91
2022-12-01T03:33:00.719Z,91
2022-12-01T03:34:00.858Z,91
2022-12-01T03:35:01.059Z,91
2022-12-01T03:36:01.150Z,91.1
2022-12-01T03:37:00.296Z,91.1
2022-12-01T03:38:00.443Z,91.1
2022-12-01T03:39:00.614Z,91.1
2022-12-01T03:40:01.398Z,91
2022-12-01T03:41:00.915Z,91.1
2022-12-01T03:42:01.041Z,91.1
2022-12-01T03:43:01.193Z,91.1
2022-12-01T03:44:00.336Z,91.2
2022-12-01T03:45:00.474Z,91.2
2022-12-01T03:46:00.726Z,91.1
2022-12-01T03:47:00.781Z,91.1
2022-12-01T03:48:00.926Z,91.1
2022-12-01T03:49:01.069Z,91
2022-12-01T03:50:01.219Z,91
2022-12-01T03:51:00.384Z,90.9
2022-12-01T03:52:00.507Z,90.9
2022-12-01T03:53:00.649Z,90.8
2022-12-01T03:54:00.834Z,90.8
2022-12-01T03:55:00.955Z,90.9
2022-12-01T03:56:01.110Z,90.9
2022-12-01T03:57:01.250Z,90.8
2022-12-01T03:58:00.393Z,90.9
2022-12-01T03:59:00.574Z,91.1
2022-12-01T04:00:00.698Z,91
2022-12-01T04:01:00.835Z,91
2022-12-01T04:02:01.049Z,91
2022-12-01T04:03:01.242Z,91
2022-12-01T04:04:00.306Z,91
2022-12-01T04:05:00.434Z,91
2022-12-01T04:06:00.584Z,91.1
2022-12-01T04:07:00.742Z,91.1
2022-12-01T04:08:00.914Z,91.1
2022-12-01T04:09:01.057Z,91.1
2022-12-01T04:10:01.174Z,91.1
2022-12-01T04:11:00.329Z,91.1
2022-12-01T04:12:00.481Z,91.2
2022-12-01T04:13:00.631Z,91.2
2022-12-01T04:14:00.794Z,91.2
2022-12-01T04:15:00.924Z,91.2
2022-12-01T04:16:01.108Z,91.2
2022-12-01T04:17:01.201Z,91.2
2022-12-01T04:18:00.347Z,91.3
2022-12-01T04:19:00.515Z,91.3
2022-12-01T04:20:00.659Z,91.3
2022-12-01T04:21:00.813Z,91.2
2022-12-01T04:22:00.957Z,91.2
2022-12-01T04:23:01.111Z,91.2
2022-12-01T04:24:00.290Z,91.2
2022-12-01T04:25:00.413Z,91.2
2022-12-01T04:26:00.559Z,91.2
2022-12-01T04:27:00.699Z,91.2
2022-12-01T04:28:00.878Z,91.2
2022-12-01T04:29:01.019Z,91.2
2022-12-01T04:30:01.153Z,91.2
2022-12-01T04:31:00.406Z,91.1
2022-12-01T04:32:00.452Z,91.1
2022-12-01T04:33:00.613Z,91.2
2022-12-01T04:34:00.748Z,91.2
2022-12-01T04:35:00.883Z,91.1
2022-12-01T04:36:01.032Z,91.1
2022-12-01T04:37:01.176Z,91.1
2022-12-01T04:38:00.346Z,91.1
2022-12-01T04:39:00.476Z,91
2022-12-01T04:40:00.639Z,91
2022-12-01T04:41:00.767Z,91
2022-12-01T04:42:00.902Z,91.1
2022-12-01T04:43:01.056Z,91.1
2022-12-01T04:44:01.232Z,91.1
2022-12-01T04:45:00.374Z,91.1
2022-12-01T04:46:00.510Z,91.1
2022-12-01T04:47:00.742Z,91.1
2022-12-01T04:48:00.793Z,91.1
2022-12-01T04:49:00.973Z,91.2
2022-12-01T04:50:01.115Z,91.2
2022-12-01T04:51:01.253Z,91.2
2022-12-01T04:52:00.407Z,91.2
2022-12-01T04:53:00.550Z,91.2
2022-12-01T04:54:00.715Z,91.2
2022-12-01T04:55:00.855Z,91.2
2022-12-01T04:56:01.033Z,91.2
2022-12-01T04:57:01.147Z,91.2
2022-12-01T04:58:00.280Z,91.1
2022-12-01T04:59:00.452Z,91.1
2022-12-01T05:00:00.582Z,91.1
2022-12-01T05:01:00.768Z,91.1
2022-12-01T05:02:00.900Z,91.1
2022-12-01T05:03:01.030Z,91.1
2022-12-01T05:04:01.206Z,91.1
2022-12-01T05:05:00.347Z,91.1
2022-12-01T05:06:00.489Z,91.1
2022-12-01T05:07:00.620Z,91.1
2022-12-01T05:08:00.839Z,91.1
2022-12-01T05:09:00.917Z,91.1
2022-12-01T05:10:01.099Z,91.1
2022-12-01T05:11:01.216Z,91.1
2022-12-01T05:12:00.371Z,91.1
2022-12-01T05:13:00.514Z,91.1
2022-12-01T05:14:00.661Z,91.1
2022-12-01T05:15:00.822Z,91.1
2022-12-01T05:16:01.065Z,91.1
2022-12-01T05:17:01.121Z,91.1
2022-12-01T05:18:01.252Z,91.1
2022-12-01T05:19:00.452Z,91.1
2022-12-01T05:20:00.563Z,91.1
2022-12-01T05:21:00.705Z,91.1
2022-12-01T05:22:01.948Z,91.1
2022-12-01T05:23:05.691Z,91.1
2022-12-01T05:24:01.153Z,91.1
2022-12-01T05:25:00.323Z,91.1
2022-12-01T05:26:00.449Z,91.1
2022-12-01T05:27:00.605Z,91.1
2022-12-01T05:28:00.748Z,91.1
2022-12-01T05:29:00.884Z,91.1
2022-12-01T05:30:01.052Z,91.1
2022-12-01T05:31:01.345Z,91.1
2022-12-01T05:32:00.477Z,91.1
2022-12-01T05:33:00.467Z,91.1
2022-12-01T05:34:00.614Z,91.1
2022-12-01T05:35:00.791Z,91.1
2022-12-01T05:36:00.899Z,91.1
2022-12-01T05:37:01.059Z,91.2
2022-12-01T05:38:06.204Z,91.2
2022-12-01T05:39:00.344Z,91.2
2022-12-01T05:40:00.514Z,91.2
2022-12-01T05:41:00.650Z,91.2
2022-12-01T05:42:00.771Z,91.2
2022-12-01T05:43:00.922Z,91.2
2022-12-01T05:44:01.065Z,91.2
2022-12-01T05:45:01.254Z,91.2
2022-12-01T05:46:00.452Z,91.2
2022-12-01T05:47:00.519Z,91.2
2022-12-01T05:48:00.677Z,91.1
2022-12-01T05:49:00.819Z,91.1
2022-12-01T05:50:05.167Z,91.1
2022-12-01T05:51:01.167Z,91.1
2022-12-01T05:52:00.290Z,91.1
2022-12-01T05:53:00.435Z,91.1
2022-12-01T05:54:00.585Z,91.1
2022-12-01T05:55:00.736Z,91
2022-12-01T05:56:00.896Z,91
2022-12-01T05:57:01.050Z,91
2022-12-01T05:58:01.206Z,91
2022-12-01T05:59:00.327Z,91
2022-12-01T06:00:00.472Z,91
2022-12-01T06:01:00.634Z,91
2022-12-01T06:02:00.815Z,91
2022-12-01T06:03:00.941Z,91
2022-12-01T06:04:01.109Z,91
2022-12-01T06:05:01.263Z,91
2022-12-01T06:06:00.375Z,91
2022-12-01T06:07:00.513Z,91
2022-12-01T06:08:00.732Z,91
2022-12-01T06:09:00.810Z,91
2022-12-01T06:10:00.975Z,91
2022-12-01T06:11:01.130Z,91
2022-12-01T06:12:01.289Z,90.9
2022-12-01T06:13:00.393Z,90.9
2022-12-01T06:14:00.543Z,90.9
2022-12-01T06:15:00.701Z,90.9
2022-12-01T06:16:00.852Z,90.9
2022-12-01T06:17:01.122Z,90.9
2022-12-01T06:18:01.143Z,90.9
2022-12-01T06:19:00.289Z,90.9
2022-12-01T06:20:00.466Z,90.8
2022-12-01T06:21:00.594Z,90.8
2022-12-01T06:22:00.767Z,90.8
2022-12-01T06:23:00.891Z,90.8
2022-12-01T06:24:01.044Z,90.9
2022-12-01T06:25:01.178Z,90.9
2022-12-01T06:26:00.325Z,90.9
2022-12-01T06:27:00.476Z,90.9
2022-12-01T06:28:00.639Z,90.9
2022-12-01T06:29:00.770Z,90.8
2022-12-01T06:30:00.910Z,90.9
2022-12-01T06:31:03.534Z,90.9
2022-12-01T06:32:01.255Z,90.9
2022-12-01T06:33:00.391Z,90.9
2022-12-01T06:34:00.517Z,90.9
2022-12-01T06:35:00.667Z,90.9
2022-12-01T06:36:00.817Z,90.9
2022-12-01T06:37:00.965Z,90.9
2022-12-01T06:38:01.143Z,90.9
2022-12-01T06:39:00.273Z,90.9
2022-12-01T06:40:00.407Z,90.9
2022-12-01T06:41:00.570Z,90.9
2022-12-01T06:42:00.720Z,90.9
2022-12-01T06:43:00.884Z,91
2022-12-01T06:44:01.045Z,90.9
2022-12-01T06:45:01.166Z,90.9
2022-12-01T06:46:02.273Z,90.9
2022-12-01T06:47:00.460Z,90.9
2022-12-01T06:48:00.609Z,90.9
2022-12-01T06:49:00.765Z,90.9
2022-12-01T06:50:00.901Z,90.9
2022-12-01T06:51:01.049Z,90.9
2022-12-01T06:52:01.297Z,90.8
2022-12-01T06:53:00.351Z,90.8
2022-12-01T06:54:05.267Z,90.7
2022-12-01T06:55:00.642Z,90.7
2022-12-01T06:56:00.793Z,90.7
2022-12-01T06:57:00.938Z,90.7
2022-12-01T06:58:01.109Z,90.7
2022-12-01T06:59:01.229Z,90.7
2022-12-01T07:00:00.378Z,90.7
2022-12-01T07:01:00.578Z,90.7
2022-12-01T07:02:00.695Z,90.7
2022-12-01T07:03:00.896Z,90.7
2022-12-01T07:04:00.976Z,90.7
2022-12-01T07:05:01.093Z,90.6
2022-12-01T07:06:01.257Z,90.6
2022-12-01T07:07:00.370Z,90.6
2022-12-01T07:08:00.557Z,90.6
2022-12-01T07:09:00.691Z,90.6
2022-12-01T07:10:00.814Z,90.6
2022-12-01T07:11:00.968Z,90.6
2022-12-01T07:12:01.111Z,90.6
2022-12-01T07:13:00.253Z,90.5
2022-12-01T07:14:00.418Z,90.5
2022-12-01T07:15:00.539Z,90.5
2022-12-01T07:16:00.693Z,90.6
2022-12-01T07:17:00.941Z,90.6
2022-12-01T07:18:01.000Z,90.6
2022-12-01T07:19:01.163Z,90.6
2022-12-01T07:20:00.289Z,90.6
2022-12-01T07:21:00.459Z,90.6
2022-12-01T07:22:00.596Z,90.6
2022-12-01T07:23:00.743Z,90.6
2022-12-01T07:24:00.890Z,90.7
2022-12-01T07:25:01.066Z,90.7
2022-12-01T07:26:01.171Z,90.6
2022-12-01T07:27:00.320Z,90.6
2022-12-01T07:28:00.477Z,90.7
2022-12-01T07:29:00.641Z,90.7
2022-12-01T07:30:00.811Z,90.7
2022-12-01T07:31:00.973Z,90.8
2022-12-01T07:32:01.080Z,90.8
2022-12-01T07:33:01.219Z,90.8
2022-12-01T07:34:00.363Z,90.8
2022-12-01T07:35:00.530Z,90.8
2022-12-01T07:36:00.672Z,90.8
2022-12-01T07:37:00.813Z,90.9
2022-12-01T07:38:00.961Z,90.9
2022-12-01T07:39:01.117Z,90.9
2022-12-01T07:40:00.290Z,90.9
2022-12-01T07:41:00.398Z,91
2022-12-01T07:42:00.564Z,91
2022-12-01T07:43:00.709Z,91
2022-12-01T07:44:00.854Z,91
2022-12-01T07:45:01.006Z,91.1
2022-12-01T07:46:01.205Z,91.1
2022-12-01T07:47:00.286Z,91.1
2022-12-01T07:48:00.423Z,91.1
2022-12-01T07:49:00.568Z,91.1
2022-12-01T07:50:00.728Z,91.1
2022-12-01T07:51:00.890Z,91.1
2022-12-01T07:52:01.030Z,91.1
2022-12-01T07:53:01.201Z,91.1
2022-12-01T07:54:00.321Z,91.1
2022-12-01T07:55:00.484Z,91.1
2022-12-01T07:56:05.547Z,91
2022-12-01T07:57:00.781Z,91
2022-12-01T07:58:00.960Z,91
2022-12-01T07:59:01.082Z,91.1
2022-12-01T08:00:01.243Z,91.1
2022-12-01T08:01:00.364Z,91.1
2022-12-01T08:02:00.597Z,91.1
2022-12-01T08:03:00.711Z,91.1
2022-12-01T08:04:00.811Z,91.1
2022-12-01T08:05:00.989Z,91
2022-12-01T08:06:01.119Z,91.1
2022-12-01T08:07:00.262Z,91.1
2022-12-01T08:08:00.473Z,91.1
2022-12-01T08:09:00.565Z,91.1
2022-12-01T08:10:00.723Z,91.1
2022-12-01T08:11:00.886Z,91.1
2022-12-01T08:12:01.108Z,91.1
2022-12-01T08:13:01.158Z,91.1
2022-12-01T08:14:00.316Z,91
2022-12-01T08:15:00.470Z,91
2022-12-01T08:16:00.655Z,91
2022-12-01T08:17:00.784Z,91
2022-12-01T08:18:00.908Z,91
2022-12-01T08:19:01.039Z,91
2022-12-01T08:20:01.185Z,91
2022-12-01T08:21:00.341Z,91.1
2022-12-01T08:22:00.502Z,91.1
2022-12-01T08:23:00.662Z,91.1
2022-12-01T08:24:00.795Z,91
2022-12-01T08:25:00.935Z,91
2022-12-01T08:26:01.078Z,91
2022-12-01T08:27:01.239Z,90.9
2022-12-01T08:28:00.381Z,90.9
2022-12-01T08:29:00.526Z,90.8
2022-12-01T08:30:00.670Z,90.7
2022-12-01T08:31:00.872Z,90.7
2022-12-01T08:32:01.009Z,90.7
2022-12-01T08:33:01.150Z,90.7
2022-12-01T08:34:00.268Z,90.7
2022-12-01T08:35:00.404Z,90.7
2022-12-01T08:36:00.559Z,90.6
2022-12-01T08:37:00.699Z,90.5
2022-12-01T08:38:00.863Z,90.5
2022-12-01T08:39:01.007Z,90.5
2022-12-01T08:40:01.172Z,90.3
2022-12-01T08:41:00.299Z,90.2
2022-12-01T08:42:00.451Z,90.3
2022-12-01T08:43:00.595Z,90.2
2022-12-01T08:44:01.470Z,90.2
2022-12-01T08:45:00.963Z,90.2
2022-12-01T08:46:01.117Z,90.1
2022-12-01T08:47:01.238Z,90.1
2022-12-01T08:48:00.348Z,90
2022-12-01T08:49:00.499Z,89.9
2022-12-01T08:50:00.649Z,90
2022-12-01T08:51:00.796Z,90
2022-12-01T08:52:00.943Z,90
2022-12-01T08:53:01.103Z,89.9
2022-12-01T08:54:01.242Z,89.9
2022-12-01T08:55:00.374Z,89.9
2022-12-01T08:56:00.528Z,90
2022-12-01T08:57:00.727Z,90
2022-12-01T08:58:00.846Z,89.9
2022-12-01T08:59:00.961Z,89.8
2022-12-01T09:00:01.104Z,89.7
2022-12-01T09:01:01.253Z,89.7
2022-12-01T09:02:03.845Z,89.7
2022-12-01T09:03:00.640Z,89.6
2022-12-01T09:04:00.710Z,89.5
2022-12-01T09:05:00.844Z,89.5
2022-12-01T09:06:00.998Z,89.4
2022-12-01T09:07:01.162Z,89.3
2022-12-01T09:08:00.421Z,89.4
2022-12-01T09:09:00.425Z,89.5
2022-12-01T09:10:00.604Z,89.5
2022-12-01T09:11:00.743Z,89.5
2022-12-01T09:12:00.887Z,89.4
2022-12-01T09:13:01.042Z,89.3
2022-12-01T09:14:01.180Z,89.2
2022-12-01T09:15:00.349Z,89.2
2022-12-01T09:16:00.558Z,89.2
2022-12-01T09:17:00.721Z,89.1
2022-12-01T09:18:00.774Z,89.1
2022-12-01T09:19:00.908Z,89.1
2022-12-01T09:20:01.078Z,89.2
2022-12-01T09:21:01.213Z,89.2
2022-12-01T09:22:00.405Z,89.2
2022-12-01T09:23:00.497Z,89.2
2022-12-01T09:24:00.658Z,89.1
2022-12-01T09:25:00.819Z,89.2
2022-12-01T09:26:00.950Z,89.2
2022-12-01T09:27:01.104Z,89.1
2022-12-01T09:28:00.254Z,89.1
2022-12-01T09:29:00.406Z,89
2022-12-01T09:30:00.582Z,89
2022-12-01T09:31:00.733Z,89
2022-12-01T09:32:00.833Z,88.8
2022-12-01T09:33:00.974Z,88.8
2022-12-01T09:34:01.168Z,88.8
2022-12-01T09:35:00.302Z,88.9
2022-12-01T09:36:00.419Z,88.9
2022-12-01T09:37:00.566Z,89
2022-12-01T09:38:00.724Z,88.9
2022-12-01T09:39:00.864Z,88.8
2022-12-01T09:40:01.035Z,88.8
2022-12-01T09:41:01.164Z,88.7
2022-12-01T09:42:00.301Z,88.8
2022-12-01T09:43:00.458Z,88.7
2022-12-01T09:44:00.605Z,88.7
2022-12-01T09:45:00.772Z,88.7
2022-12-01T09:46:00.894Z,88.7
2022-12-01T09:47:01.087Z,88.7
2022-12-01T09:48:01.197Z,88.6
2022-12-01T09:49:00.334Z,88.6
2022-12-01T09:50:00.507Z,88.6
2022-12-01T09:51:00.642Z,88.6
2022-12-01T09:52:00.790Z,88.7
2022-12-01T09:53:00.944Z,88.8
2022-12-01T09:54:01.100Z,88.8
2022-12-01T09:55:01.293Z,88.8
2022-12-01T09:56:07.135Z,88.7
2022-12-01T09:57:00.573Z,88.6
2022-12-01T09:58:00.715Z,88.6
2022-12-01T09:59:00.838Z,88.6
2022-12-01T10:00:01.029Z,88.6
2022-12-01T10:01:01.194Z,88.7
2022-12-01T10:02:00.375Z,88.7
2022-12-01T10:03:00.441Z,88.6
2022-12-01T10:04:00.580Z,88.7
2022-12-01T10:05:00.748Z,88.7
2022-12-01T10:06:27.791Z,88.5
2022-12-01T10:07:01.026Z,88.4
2022-12-01T10:08:01.295Z,88.4
2022-12-01T10:09:00.327Z,88.4
2022-12-01T10:10:00.475Z,88.4
2022-12-01T10:11:00.637Z,88.4
2022-12-01T10:12:00.769Z,88.3
2022-12-01T10:13:00.951Z,88.4
2022-12-01T10:14:01.087Z,88.4
2022-12-01T10:15:01.226Z,88.3
2022-12-01T10:16:00.407Z,88.3
2022-12-01T10:17:00.520Z,88.2
2022-12-01T10:18:00.695Z,88.2
2022-12-01T10:19:00.825Z,88.3
2022-12-01T10:20:00.984Z,88.3
2022-12-01T10:21:01.158Z,88.3
2022-12-01T10:22:00.287Z,88.3
2022-12-01T10:23:00.426Z,88.2
2022-12-01T10:24:00.583Z,88
2022-12-01T10:25:00.725Z,88
2022-12-01T10:26:00.875Z,88.2
2022-12-01T10:27:01.014Z,88.2
2022-12-01T10:28:01.148Z,88.1
2022-12-01T10:29:00.294Z,88.3
2022-12-01T10:30:00.448Z,88.4
2022-12-01T10:31:00.608Z,88.3
2022-12-01T10:32:00.842Z,88.3
2022-12-01T10:33:00.903Z,88.3
2022-12-01T10:34:01.055Z,88.3
2022-12-01T10:35:01.201Z,88.4
2022-12-01T10:36:00.344Z,88.5
2022-12-01T10:37:00.513Z,88.4
2022-12-01T10:38:00.786Z,88.4
2022-12-01T10:39:00.787Z,88.4
2022-12-01T10:40:00.933Z,88.4
2022-12-01T10:41:01.089Z,88.3
2022-12-01T10:42:01.230Z,88.3
2022-12-01T10:43:00.366Z,88.4
2022-12-01T10:44:00.503Z,88.4
2022-12-01T10:45:00.654Z,88.4
2022-12-01T10:46:00.851Z,88.4
2022-12-01T10:47:00.968Z,88.4
2022-12-01T10:48:01.089Z,88.4
2022-12-01T10:49:01.239Z,88.3
2022-12-01T10:50:00.390Z,88.4
2022-12-01T10:51:00.534Z,88.5
2022-12-01T10:52:00.710Z,88.5
2022-12-01T10:53:00.845Z,88.5
2022-12-01T10:54:01.052Z,88.6
2022-12-01T10:55:01.151Z,88.6
2022-12-01T10:56:00.304Z,88.7
2022-12-01T10:57:00.462Z,88.5
2022-12-01T10:58:04.761Z,88.5
2022-12-01T10:59:00.723Z,88.5
2022-12-01T11:00:00.872Z,88.5
2022-12-01T11:01:01.505Z,88.6
2022-12-01T11:02:01.345Z,88.6
2022-12-01T11:03:00.461Z,88.6
2022-12-01T11:04:00.503Z,88.6
2022-12-01T11:05:00.622Z,88.6
2022-12-01T11:06:00.770Z,88.6
2022-12-01T11:07:00.917Z,88.6
2022-12-01T11:08:01.136Z,88.7
2022-12-01T11:09:01.203Z,88.7
2022-12-01T11:10:00.376Z,88.7
2022-12-01T11:11:00.513Z,88.7
2022-12-01T11:12:00.646Z,88.7
2022-12-01T11:13:00.798Z,88.7
2022-12-01T11:14:00.948Z,88.7
2022-12-01T11:15:01.127Z,88.7
2022-12-01T11:16:01.244Z,88.7
2022-12-01T11:17:00.494Z,88.7
2022-12-01T11:18:00.531Z,88.6
2022-12-01T11:19:00.735Z,88.7
2022-12-01T11:20:00.883Z,88.8
2022-12-01T11:21:00.995Z,88.7
2022-12-01T11:22:01.139Z,88.6
2022-12-01T11:23:00.284Z,88.5
2022-12-01T11:24:00.439Z,88.6
2022-12-01T11:25:00.600Z,88.6
2022-12-01T11:26:00.739Z,88.6
2022-12-01T11:27:00.890Z,88.7
2022-12-01T11:28:01.031Z,88.7
2022-12-01T11:29:01.168Z,88.8
2022-12-01T11:30:00.315Z,88.8
2022-12-01T11:31:00.484Z,88.9
2022-12-01T11:32:00.730Z,88.9
2022-12-01T11:33:00.751Z,88.9
2022-12-01T11:34:00.901Z,88.9
2022-12-01T11:35:01.037Z,88.8
2022-12-01T11:36:01.220Z,88.7
2022-12-01T11:37:00.368Z,88.7
2022-12-01T11:38:28.166Z,88.7
2022-12-01T11:39:00.635Z,88.7
2022-12-01T11:40:00.781Z,88.7
2022-12-01T11:41:00.931Z,88.7
2022-12-01T11:42:01.087Z,88.6
2022-12-01T11:43:01.235Z,88.5
2022-12-01T11:44:01.999Z,88.5
2022-12-01T11:45:00.537Z,88.5
2022-12-01T11:46:00.689Z,88.5
2022-12-01T11:48:00.965Z,88.5
2022-12-01T11:49:01.100Z,88.6
2022-12-01T11:50:01.265Z,88.7
2022-12-01T11:51:00.395Z,88.6
2022-12-01T11:52:00.540Z,88.6
2022-12-01T11:53:00.691Z,88.4
2022-12-01T11:54:00.831Z,88.4
2022-12-01T11:55:04.422Z,88.4
2022-12-01T11:56:01.132Z,88.4
2022-12-01T11:57:25.804Z,88.5
2022-12-01T11:58:00.430Z,88.4
2022-12-01T11:59:00.565Z,88.4
2022-12-01T12:00:00.726Z,88.4
2022-12-01T12:01:00.857Z,88.4
2022-12-01T12:02:01.075Z,88.4
2022-12-01T12:03:01.291Z,88.4
2022-12-01T12:04:00.298Z,88.4
2022-12-01T12:05:00.458Z,88.3
2022-12-01T12:06:17.829Z,88.2
2022-12-01T12:07:00.737Z,88
2022-12-01T12:08:00.917Z,88
2022-12-01T12:09:01.119Z,88.1
2022-12-01T12:10:01.225Z,88.1
2022-12-01T12:11:00.416Z,88.1
2022-12-01T12:12:00.491Z,88
2022-12-01T12:13:00.627Z,87.8
2022-12-01T12:14:00.772Z,87.8
2022-12-01T12:15:00.928Z,87.8
2022-12-01T12:16:01.067Z,87.9
2022-12-01T12:17:01.215Z,88.2
2022-12-01T12:18:00.408Z,88.3
2022-12-01T12:19:00.500Z,88.4
2022-12-01T12:20:08.900Z,88.4
2022-12-01T12:21:00.828Z,88.1
2022-12-01T12:22:00.977Z,88.1
2022-12-01T12:23:01.130Z,88.1
2022-12-01T12:24:01.258Z,88.1
2022-12-01T12:25:00.407Z,87.9
2022-12-01T12:26:00.550Z,87.9
2022-12-01T12:27:00.714Z,88
2022-12-01T12:28:00.883Z,88
2022-12-01T12:29:01.012Z,88
2022-12-01T12:30:01.155Z,88
2022-12-01T12:31:00.365Z,88
2022-12-01T12:32:00.451Z,88
2022-12-01T12:33:00.623Z,88
2022-12-01T12:34:00.761Z,88.1
2022-12-01T12:35:00.902Z,88.1
2022-12-01T12:36:01.041Z,88.3
2022-12-01T12:37:01.194Z,88.3
2022-12-01T12:38:00.332Z,88.2
2022-12-01T12:39:00.507Z,88.2
2022-12-01T12:40:00.638Z,88.2
2022-12-01T12:41:00.810Z,88.2
2022-12-01T12:42:00.942Z,88.2
2022-12-01T12:43:01.085Z,88.2
2022-12-01T12:44:01.244Z,88.1
2022-12-01T12:45:00.408Z,88.1
2022-12-01T12:46:00.586Z,88.1
2022-12-01T12:47:00.683Z,88
2022-12-01T12:48:00.832Z,88.1
2022-12-01T12:49:19.182Z,88
2022-12-01T12:50:01.147Z,88
2022-12-01T12:51:00.261Z,88
2022-12-01T12:52:06.576Z,88
2022-12-01T12:53:00.560Z,88.1
2022-12-01T12:54:00.752Z,88.1
2022-12-01T12:55:00.879Z,88.2
2022-12-01T12:56:01.021Z,88.2
2022-12-01T12:57:01.163Z,88.3
2022-12-01T12:58:00.326Z,88.2
2022-12-01T12:59:00.465Z,88.2
2022-12-01T13:00:00.630Z,88.2
2022-12-01T13:01:00.784Z,88.2
2022-12-01T13:02:01.017Z,88.4
2022-12-01T13:03:01.139Z,88.3
2022-12-01T13:04:01.222Z,88.2
2022-12-01T13:05:00.395Z,88.1
2022-12-01T13:06:00.524Z,88.1
2022-12-01T13:07:00.671Z,88.1
2022-12-01T13:08:00.886Z,88.3
2022-12-01T13:09:00.972Z,88.3
2022-12-01T13:10:01.209Z,88.4
2022-12-01T13:11:00.281Z,88.4
2022-12-01T13:12:00.451Z,88.3
2022-12-01T13:13:00.563Z,88.3
2022-12-01T13:14:00.701Z,88.3
2022-12-01T13:15:01.344Z,88.2
2022-12-01T13:16:01.060Z,88.3
2022-12-01T13:17:01.168Z,88.3
2022-12-01T13:18:00.301Z,88.4
2022-12-01T13:19:00.437Z,88.4
2022-12-01T13:20:00.591Z,88.4
2022-12-01T13:21:00.732Z,88.2
2022-12-01T13:22:00.988Z,88.2
2022-12-01T13:23:01.047Z,88.2
2022-12-01T13:24:01.174Z,88.3
2022-12-01T13:25:00.326Z,88.3